createdAt,value
2022-11-01T00:01:16.555Z,25.17
2022-11-01T00:04:04.467Z,26.13
2022-11-01T00:06:52.345Z,24.80
2022-11-01T00:09:39.947Z,25.03
2022-11-01T00:12:27.805Z,25.87
2022-11-01T00:15:16.985Z,28.70
2022-11-01T00:18:04.590Z,32.43
2022-11-01T00:20:52.300Z,30.40
2022-11-01T00:23:40.599Z,32.30
2022-11-01T00:26:28.341Z,30.98
2022-11-01T00:29:16.531Z,33.45
2022-11-01T00:32:06.977Z,36.87
2022-11-01T00:34:55.066Z,35.97
2022-11-01T00:37:42.640Z,37.53
2022-11-01T00:40:30.566Z,36.50
2022-11-01T00:46:06.958Z,40.83
2022-11-01T00:48:56.247Z,42.88
2022-11-01T00:51:43.780Z,41.88
2022-11-01T00:54:31.714Z,40.75
2022-11-01T00:57:19.455Z,37.70
2022-11-01T01:00:08.343Z,36.30
2022-11-01T01:02:56.478Z,36.83
2022-11-01T01:05:45.487Z,36.20
2022-11-01T01:08:34.153Z,36.58
2022-11-01T01:11:22.049Z,31.73
2022-11-01T01:14:10.502Z,30.48
2022-11-01T01:16:58.169Z,31.48
2022-11-01T01:19:46.075Z,29.08
2022-11-01T01:22:35.097Z,28.65
2022-11-01T01:25:22.909Z,27.42
2022-11-01T01:28:11.274Z,31.17
2022-11-01T01:30:58.892Z,29.58
2022-11-01T01:33:46.640Z,26.90
2022-11-01T01:36:34.447Z,30.10
2022-11-01T01:39:23.759Z,32.40
2022-11-01T01:42:18.341Z,29.58
2022-11-01T01:45:29.269Z,32.20
2022-11-01T01:48:21.869Z,29.65
2022-11-01T01:55:37.637Z,29.13
2022-11-01T01:58:30.940Z,28.60
2022-11-01T02:01:19.765Z,30.42
2022-11-01T02:04:13.741Z,30.23
2022-11-01T02:07:02.181Z,29.40
2022-11-01T02:09:50.205Z,29.43
2022-11-01T02:12:39.304Z,28.70
2022-11-01T02:15:48.396Z,29.83
2022-11-01T02:18:42.890Z,26.87
2022-11-01T02:21:58.301Z,28.23
2022-11-01T02:25:10.953Z,30.13
2022-11-01T02:28:17.022Z,27.83
2022-11-01T02:31:18.961Z,27.60
2022-11-01T02:34:17.767Z,30.63
2022-11-01T02:37:12.664Z,28.53
2022-11-01T02:40:07.623Z,31.57
2022-11-01T02:43:01.960Z,29.03
2022-11-01T02:45:51.839Z,34.00
2022-11-01T02:48:40.351Z,33.35
2022-11-01T02:51:30.734Z,33.65
2022-11-01T02:54:22.680Z,31.93
2022-11-01T02:57:28.210Z,36.43
2022-11-01T03:00:22.054Z,34.53
2022-11-01T03:03:15.399Z,34.28
2022-11-01T03:06:13.365Z,34.65
2022-11-01T03:09:05.689Z,34.70
2022-11-01T03:11:57.318Z,35.83
2022-11-01T03:14:53.519Z,36.00
2022-11-01T03:17:48.199Z,33.13
2022-11-01T03:20:48.625Z,33.90
2022-11-01T03:23:41.597Z,32.67
2022-11-01T03:26:34.679Z,30.83
2022-11-01T03:29:24.823Z,29.27
2022-11-01T03:32:14.976Z,30.20
2022-11-01T03:35:05.165Z,34.72
2022-11-01T03:37:58.774Z,37.70
2022-11-01T03:40:51.831Z,32.70
2022-11-01T03:43:42.576Z,30.93
2022-11-01T03:46:30.083Z,31.27
2022-11-01T03:49:18.696Z,30.47
2022-11-01T03:52:06.613Z,31.60
2022-11-01T03:54:54.278Z,32.37
2022-11-01T03:57:42.884Z,30.65
2022-11-01T04:00:33.555Z,28.50
2022-11-01T04:03:21.624Z,30.77
2022-11-01T04:06:10.198Z,31.17
2022-11-01T04:08:57.945Z,27.33
2022-11-01T04:11:45.631Z,27.53
2022-11-01T04:14:50.853Z,25.77
2022-11-01T04:17:57.086Z,24.40
2022-11-01T04:20:44.709Z,24.20
2022-11-01T04:23:32.807Z,24.30
2022-11-01T04:26:22.804Z,25.50
2022-11-01T04:29:10.795Z,29.60
2022-11-01T04:31:58.587Z,26.90
2022-11-01T04:34:47.693Z,27.53
2022-11-01T04:37:35.059Z,25.40
2022-11-01T04:40:22.705Z,25.13
2022-11-01T04:43:11.147Z,26.47
2022-11-01T04:45:58.909Z,26.80
2022-11-01T04:48:46.678Z,29.27
2022-11-01T04:51:35.777Z,26.27
2022-11-01T04:54:23.750Z,25.70
2022-11-01T04:57:22.766Z,27.30
2022-11-01T05:00:12.786Z,28.97
2022-11-01T05:03:04.345Z,25.67
2022-11-01T05:05:52.432Z,28.83
2022-11-01T05:08:41.312Z,31.70
2022-11-01T05:11:28.737Z,37.20
2022-11-01T05:14:16.484Z,36.57
2022-11-01T05:17:04.336Z,41.43
2022-11-01T05:33:52.960Z,37.07
2022-11-01T05:36:40.744Z,37.90
2022-11-01T05:39:28.781Z,36.50
2022-11-01T05:42:17.713Z,36.60
2022-11-01T05:45:05.873Z,32.75
2022-11-01T05:47:53.365Z,34.57
2022-11-01T05:50:41.700Z,37.60
2022-11-01T05:53:29.690Z,37.07
2022-11-01T05:56:17.531Z,35.40
2022-11-01T05:59:06.882Z,34.57
2022-11-01T06:01:54.846Z,32.77
2022-11-01T06:04:42.469Z,34.10
2022-11-01T06:07:30.281Z,35.07
2022-11-01T06:10:17.938Z,28.53
2022-11-01T06:13:05.944Z,26.77
2022-11-01T06:16:00.532Z,29.23
2022-11-01T06:18:48.655Z,31.97
2022-11-01T06:21:36.282Z,36.30
2022-11-01T06:24:23.768Z,39.70
2022-11-01T06:27:12.750Z,42.13
2022-11-01T06:30:00.682Z,41.57
2022-11-01T06:32:49.632Z,38.63
2022-11-01T06:35:37.754Z,41.97
2022-11-01T06:38:25.231Z,45.67
2022-11-01T06:41:13.190Z,40.33
2022-11-01T06:44:01.480Z,42.78
2022-11-01T06:46:49.384Z,44.25
2022-11-01T06:49:38.503Z,39.70
2022-11-01T06:52:26.311Z,36.17
2022-11-01T06:55:14.096Z,33.63
2022-11-01T06:58:03.893Z,36.33
2022-11-01T07:00:51.808Z,33.30
2022-11-01T07:03:41.937Z,30.70
2022-11-01T07:06:31.716Z,37.37
2022-11-01T07:09:19.361Z,36.93
2022-11-01T07:12:07.597Z,34.30
2022-11-01T07:14:55.322Z,41.57
2022-11-01T07:17:43.909Z,43.33
2022-11-01T07:20:35.317Z,40.78
2022-11-01T07:23:25.397Z,40.63
2022-11-01T07:26:13.282Z,44.08
2022-11-01T07:29:01.164Z,42.67
2022-11-01T07:31:48.895Z,44.70
2022-11-01T07:34:36.693Z,45.22
2022-11-01T07:37:24.257Z,50.33
2022-11-01T07:40:14.041Z,49.33
2022-11-01T07:43:02.245Z,45.97
2022-11-01T07:45:50.093Z,48.05
2022-11-01T07:48:37.960Z,41.90
2022-11-01T08:36:13.183Z,25.83
2022-11-01T08:39:01.116Z,22.60
2022-11-01T08:41:51.118Z,23.95
2022-11-01T08:50:17.863Z,21.08
2022-11-01T08:53:06.564Z,21.70
2022-11-01T10:26:31.573Z,17.48
2022-11-01T10:29:24.831Z,18.45
2022-11-01T10:32:24.232Z,17.85
2022-11-01T10:35:19.117Z,18.05
2022-11-01T10:38:25.012Z,16.80
2022-11-01T10:41:24.912Z,18.58
2022-11-01T10:44:16.936Z,17.95
2022-11-01T10:47:09.514Z,18.30
2022-11-01T10:50:08.514Z,18.40
2022-11-01T10:52:59.804Z,16.60
2022-11-01T10:55:52.233Z,16.98
2022-11-01T10:58:42.947Z,17.23
2022-11-01T11:01:37.426Z,17.75
2022-11-01T11:04:26.713Z,15.98
2022-11-01T11:07:18.557Z,16.98
2022-11-01T11:10:22.776Z,17.83
2022-11-01T11:13:12.187Z,16.15
2022-11-01T11:16:05.355Z,17.33
2022-11-01T11:19:04.346Z,15.32
2022-11-01T11:21:55.481Z,15.13
2022-11-01T11:24:45.142Z,14.73
2022-11-01T11:27:34.431Z,15.98
2022-11-01T11:30:33.460Z,16.00
2022-11-01T11:33:21.907Z,16.48
2022-11-01T11:36:10.252Z,16.25
2022-11-01T11:38:59.978Z,17.00
2022-11-01T11:41:48.363Z,17.10
2022-11-01T11:44:50.661Z,16.90
2022-11-01T11:47:41.506Z,16.02
2022-11-01T11:50:35.154Z,16.65
2022-11-01T11:53:24.603Z,15.98
2022-11-01T11:56:13.869Z,16.58
2022-11-01T11:59:08.633Z,16.88
2022-11-01T12:02:00.284Z,16.15
2022-11-01T12:04:52.987Z,16.75
2022-11-01T12:07:48.950Z,16.02
2022-11-01T12:10:39.309Z,16.70
2022-11-01T12:13:33.324Z,16.17
2022-11-01T12:16:24.807Z,15.73
2022-11-01T12:19:25.340Z,16.85
2022-11-01T12:22:13.876Z,16.63
2022-11-01T12:25:06.383Z,17.33
2022-11-01T12:28:02.749Z,16.25
2022-11-01T12:30:56.648Z,16.30
2022-11-01T12:33:49.891Z,16.27
2022-11-01T12:36:44.396Z,17.13
2022-11-01T12:39:41.703Z,15.25
2022-11-01T12:42:33.961Z,14.60
2022-11-01T12:45:29.175Z,14.40
2022-11-01T12:48:25.423Z,15.13
2022-11-01T12:51:20.661Z,13.65
2022-11-01T12:54:16.256Z,14.88
2022-11-01T12:57:03.883Z,13.70
2022-11-01T12:59:52.511Z,14.77
2022-11-01T13:02:57.880Z,12.82
2022-11-01T13:05:53.350Z,13.55
2022-11-01T13:08:50.179Z,13.48
2022-11-01T13:11:47.786Z,13.32
2022-11-01T13:14:47.667Z,13.00
2022-11-01T13:17:45.319Z,11.48
2022-11-01T13:20:42.918Z,11.70
2022-11-01T13:23:37.478Z,10.35
2022-11-01T13:26:28.012Z,10.93
2022-11-01T13:29:20.165Z,10.88
2022-11-01T13:32:17.643Z,10.10
2022-11-01T13:35:38.499Z,9.70
2022-11-01T13:38:36.533Z,9.82
2022-11-01T13:41:31.003Z,9.95
2022-11-01T13:44:23.623Z,9.30
2022-11-01T13:47:37.361Z,10.00
2022-11-01T13:51:03.739Z,10.07
2022-11-01T13:53:58.769Z,8.90
2022-11-01T13:56:53.608Z,8.98
2022-11-01T13:59:46.345Z,8.23
2022-11-01T14:02:57.365Z,8.13
2022-11-01T14:05:46.218Z,8.93
2022-11-01T14:08:38.408Z,8.55
2022-11-01T14:11:46.604Z,8.25
2022-11-01T14:14:53.470Z,8.43
2022-11-01T14:18:05.479Z,7.55
2022-11-01T14:20:54.658Z,7.60
2022-11-01T14:23:51.445Z,7.00
2022-11-01T14:27:01.156Z,8.27
2022-11-01T14:29:53.600Z,7.82
2022-11-01T14:32:43.134Z,7.75
2022-11-01T14:35:34.007Z,7.35
2022-11-01T14:38:29.181Z,7.75
2022-11-01T14:41:19.086Z,8.15
2022-11-01T14:44:14.115Z,7.22
2022-11-01T14:47:07.760Z,6.90
2022-11-01T14:50:00.478Z,6.57
2022-11-01T14:52:54.015Z,8.00
2022-11-01T14:55:41.664Z,7.38
2022-11-01T14:58:29.792Z,6.82
2022-11-01T15:01:20.787Z,7.05
2022-11-01T15:04:21.461Z,7.07
2022-11-01T15:07:20.380Z,7.75
2022-11-01T15:10:10.783Z,7.88
2022-11-01T15:13:00.454Z,6.50
2022-11-01T15:32:53.935Z,6.80
2022-11-01T15:35:43.738Z,8.10
2022-11-01T16:41:20.564Z,13.50
2022-11-01T16:44:16.063Z,13.20
2022-11-01T16:47:03.815Z,15.05
2022-11-01T16:49:54.217Z,13.68
2022-11-01T16:52:42.074Z,14.40
2022-11-01T16:55:31.383Z,13.27
2022-11-01T16:58:25.912Z,14.02
2022-11-01T17:01:21.351Z,13.93
2022-11-01T17:04:13.148Z,16.83
2022-11-01T17:07:01.233Z,15.65
2022-11-01T17:09:49.062Z,15.68
2022-11-01T17:12:37.135Z,14.98
2022-11-01T17:15:26.873Z,16.83
2022-11-01T17:18:18.140Z,15.30
2022-11-01T17:21:08.772Z,15.18
2022-11-01T17:23:56.472Z,13.23
2022-11-01T17:26:44.170Z,14.68
2022-11-01T17:29:32.830Z,12.75
2022-11-01T17:32:20.328Z,14.40
2022-11-01T17:35:09.950Z,13.45
2022-11-01T17:37:57.648Z,13.98
2022-11-01T17:40:46.622Z,13.27
2022-11-01T17:43:34.454Z,13.68
2022-11-01T17:46:27.175Z,14.43
2022-11-01T17:49:16.247Z,13.25
2022-11-01T17:52:05.669Z,13.70
2022-11-01T17:54:53.574Z,15.30
2022-11-01T17:57:41.753Z,16.05
2022-11-01T18:00:29.683Z,14.80
2022-11-01T18:03:17.164Z,14.43
2022-11-01T18:06:05.311Z,14.45
2022-11-01T18:08:54.906Z,13.88
2022-11-01T18:11:49.310Z,13.73
2022-11-01T18:14:49.230Z,13.13
2022-11-01T18:17:49.027Z,14.13
2022-11-01T18:20:47.254Z,13.68
2022-11-01T18:23:36.873Z,14.00
2022-11-01T18:26:29.668Z,13.70
2022-11-01T21:28:15.133Z,17.50
2022-11-01T21:31:12.537Z,16.33
2022-11-01T21:56:51.109Z,15.20
2022-11-01T21:59:39.397Z,14.68
2022-11-01T22:05:15.022Z,16.10
2022-11-01T22:08:03.990Z,15.00
2022-11-01T22:10:51.621Z,14.30
2022-11-01T22:13:39.468Z,16.13
2022-11-01T22:16:27.631Z,15.18
2022-11-01T22:19:15.835Z,15.23
2022-11-01T22:22:03.527Z,17.40
2022-11-01T22:24:52.896Z,20.15
2022-11-01T22:27:40.548Z,19.23
2022-11-01T22:30:28.485Z,20.00
2022-11-01T22:33:16.243Z,16.85
2022-11-01T22:36:05.120Z,17.30
2022-11-01T22:38:55.938Z,16.40
2022-11-01T23:50:17.488Z,14.52
2022-11-01T23:53:07.837Z,13.52
2022-11-01T23:55:56.106Z,13.63
2022-11-01T23:58:43.710Z,13.73
